Time;durP1;ratioP1;P1;durP2;ratioP2;P2;SDS_P1;SDS_P2;PMS_P1;PMS_P2;Temp;Humidity;BMP_temperature;BMP_pressure;BME280_temperature;BME280_humidity;BME280_pressure;Samples;Min_cycle;Max_cycle;Signal;HPM_P1;HPM_P2
2023/05/07 00:00:20;;;;;;;;;1.00;1.00;;;;;19.22;63.88;100734.75;5073490;27;45974;-78
2023/05/07 00:02:46;;;;;;;;;1.00;1.00;;;;;19.24;64.21;100732.78;5073544;28;47163;-78
2023/05/07 00:08:34;;;;;;;;;1.00;1.00;;;;;19.25;64.27;100724.66;5073498;28;45524;-75
2023/05/07 00:10:59;;;;;;;;;1.00;1.00;;;;;19.26;63.85;100723.69;5089185;27;45710;-77
2023/05/07 00:13:24;;;;;;;;;4.75;1.50;;;;;19.25;63.96;100732.63;5073155;27;47374;-77
2023/05/07 00:15:50;;;;;;;;;3.00;2.00;;;;;19.25;63.84;100729.16;5073496;27;46022;-74
2023/05/07 00:24:39;;;;;;;;;2.00;1.00;;;;;19.23;64.06;100737.28;5073038;28;45634;-80
2023/05/07 00:27:05;;;;;;;;;2.25;1.00;;;;;19.24;63.88;100741.59;5073290;27;45618;-77
2023/05/07 00:29:30;;;;;;;;;1.50;1.00;;;;;19.24;63.97;100746.91;5073257;28;45628;-80
2023/05/07 00:31:55;;;;;;;;;1.00;1.00;;;;;19.25;64.56;100737.94;5072092;28;45488;-76
2023/05/07 00:34:21;;;;;;;;;2.00;1.00;;;;;19.27;64.63;100749.22;5073086;27;46206;-76
2023/05/07 00:36:46;;;;;;;;;2.00;2.00;;;;;19.28;64.96;100742.09;5075054;27;46459;-77
2023/05/07 00:39:11;;;;;;;;;1.00;1.00;;;;;19.29;64.45;100746.41;5076305;27;45724;-78
2023/05/07 00:41:37;;;;;;;;;1.75;1.75;;;;;19.29;64.41;100736.63;5076781;27;45480;-76
2023/05/07 00:44:02;;;;;;;;;2.25;2.00;;;;;19.26;64.61;100733.47;5076614;27;45555;-75
2023/05/07 00:46:30;;;;;;;;;1.25;1.00;;;;;19.25;64.78;100734.47;5076608;27;46174;-78
2023/05/07 00:48:55;;;;;;;;;1.00;1.00;;;;;19.23;64.80;100733.78;5076590;27;45694;-79
2023/05/07 00:51:23;;;;;;;;;1.00;0.25;;;;;19.21;64.36;100733.97;5076743;27;45526;-79
2023/05/07 00:53:49;;;;;;;;;0.75;0.75;;;;;19.22;64.45;100734.75;5076285;27;46535;-76
2023/05/07 00:56:14;;;;;;;;;1.50;0.75;;;;;19.20;64.07;100732.28;5076132;27;45814;-77
2023/05/07 00:58:40;;;;;;;;;1.00;1.00;;;;;19.19;64.36;100724.47;5076088;27;45623;-74
2023/05/07 01:01:06;;;;;;;;;1.00;1.00;;;;;19.17;64.27;100723.78;5076546;28;45447;-76
2023/05/07 01:03:31;;;;;;;;;0.00;0.00;;;;;19.16;64.10;100722.97;5076234;27;47679;-77
2023/05/07 01:09:19;;;;;;;;;0.50;0.00;;;;;19.15;64.14;100723.13;5076090;28;45761;-77
2023/05/07 01:11:46;;;;;;;;;0.00;0.00;;;;;19.14;64.45;100713.50;5076299;27;45825;-79
2023/05/07 01:14:11;;;;;;;;;0.00;0.00;;;;;19.13;64.05;100707.34;5076095;27;46629;-79
2023/05/07 01:16:37;;;;;;;;;0.00;0.00;;;;;19.13;64.35;100696.72;5075793;27;46569;-78
2023/05/07 01:19:03;;;;;;;;;0.25;0.00;;;;;19.13;64.09;100703.88;5076073;27;45659;-74
2023/05/07 01:21:34;;;;;;;;;0.25;0.00;;;;;19.11;64.55;100697.91;5076006;27;45545;-77
2023/05/07 01:24:00;;;;;;;;;0.00;0.00;;;;;19.11;64.27;100704.03;5091574;27;47576;-76
2023/05/07 01:26:25;;;;;;;;;1.00;0.00;;;;;19.09;64.68;100703.38;5075898;27;46304;-75
2023/05/07 01:28:51;;;;;;;;;1.50;0.75;;;;;19.09;64.35;100699.88;5075917;27;45655;-76
2023/05/07 01:31:17;;;;;;;;;1.00;0.00;;;;;19.09;64.34;100702.53;5076096;27;45513;-76
2023/05/07 01:33:45;;;;;;;;;0.00;0.00;;;;;19.06;64.68;100694.88;5075435;27;46458;-76
2023/05/07 01:39:33;;;;;;;;;1.00;0.00;;;;;19.06;64.84;100702.84;5065779;28;45693;-77
2023/05/07 01:41:59;;;;;;;;;1.00;1.00;;;;;19.04;65.04;100697.72;5074401;28;45533;-76
2023/05/07 01:44:25;;;;;;;;;0.75;0.75;;;;;19.04;64.69;100695.06;5075445;28;46457;-72
2023/05/07 01:46:52;;;;;;;;;0.25;0.25;;;;;19.03;64.84;100704.00;5075388;27;45579;-76
2023/05/07 01:49:18;;;;;;;;;0.00;0.00;;;;;19.03;65.09;100703.19;5075310;27;45685;-77
2023/05/07 01:51:43;;;;;;;;;0.75;0.75;;;;;19.02;64.56;100710.31;5091126;27;45722;-75
2023/05/07 01:54:08;;;;;;;;;0.00;0.00;;;;;19.02;64.70;100715.63;5075505;28;45576;-76
2023/05/07 01:56:34;;;;;;;;;0.00;0.00;;;;;19.00;64.84;100709.63;5075456;27;46201;-75
2023/05/07 01:59:01;;;;;;;;;0.00;0.00;;;;;19.01;65.05;100710.47;5075172;27;45548;-79
2023/05/07 02:01:27;;;;;;;;;1.00;0.00;;;;;19.00;64.44;100720.25;5075366;27;45965;-77
2023/05/07 02:03:53;;;;;;;;;0.00;0.00;;;;;19.01;64.68;100713.94;5075227;27;46521;-77
2023/05/07 02:09:40;;;;;;;;;0.75;0.75;;;;;18.99;64.93;100708.00;5075013;28;45718;-77
2023/05/07 02:12:05;;;;;;;;;1.00;0.00;;;;;19.00;64.77;100706.16;5075465;27;45671;-76
2023/05/07 02:14:31;;;;;;;;;1.00;1.00;;;;;18.98;65.06;100703.66;5075153;27;45550;-78
2023/05/07 02:16:56;;;;;;;;;1.00;1.00;;;;;18.96;64.82;100710.94;5075159;27;45600;-77
2023/05/07 02:19:21;;;;;;;;;0.75;0.75;;;;;18.96;65.33;100702.97;5075213;27;45520;-76
2023/05/07 02:25:08;;;;;;;;;0.25;0.25;;;;;18.95;65.05;100708.47;5074774;28;45643;-76
2023/05/07 02:27:34;;;;;;;;;1.75;1.00;;;;;18.93;65.26;100705.97;5074908;27;45809;-77
2023/05/07 02:29:59;;;;;;;;;1.00;1.00;;;;;18.93;65.10;100716.59;5074996;28;45943;-76
2023/05/07 02:32:24;;;;;;;;;2.00;0.50;;;;;18.93;64.82;100723.72;5075082;27;45666;-76
2023/05/07 02:34:50;;;;;;;;;0.00;0.00;;;;;18.93;65.53;100721.06;5074730;27;46318;-77
2023/05/07 02:37:16;;;;;;;;;0.00;0.00;;;;;18.89;65.16;100725.88;5074502;27;46307;-78
2023/05/07 02:39:41;;;;;;;;;0.75;0.75;;;;;18.83;65.34;100723.84;5074453;27;45477;-77
2023/05/07 02:42:06;;;;;;;;;0.00;0.00;;;;;18.81;65.18;100726.66;5074745;27;45530;-76
2023/05/07 02:44:32;;;;;;;;;2.00;0.75;;;;;18.82;65.41;100724.84;5074696;27;46495;-76
2023/05/07 02:46:57;;;;;;;;;1.00;0.75;;;;;18.81;65.13;100726.66;5074674;27;46032;-74
2023/05/07 02:49:22;;;;;;;;;1.00;1.00;;;;;18.82;65.57;100728.31;5074411;27;45687;-74
2023/05/07 02:55:09;;;;;;;;;0.00;0.00;;;;;18.80;65.44;100729.47;5074241;28;46167;-78
2023/05/07 02:57:35;;;;;;;;;0.00;0.00;;;;;18.79;65.27;100719.84;5074271;27;46067;-78
2023/05/07 03:00:10;;;;;;;;;1.00;1.00;;;;;18.77;65.58;100725.31;5073356;27;45595;-77
2023/05/07 03:02:36;;;;;;;;;1.00;1.00;;;;;18.78;65.66;100723.50;5074652;27;45554;-77
2023/05/07 03:05:01;;;;;;;;;0.00;0.00;;;;;18.77;65.36;100725.31;5074397;27;46375;-78
2023/05/07 03:07:26;;;;;;;;;1.00;1.00;;;;;18.78;65.42;100734.13;5073992;27;46904;-73
2023/05/07 03:09:53;;;;;;;;;0.00;0.00;;;;;18.78;65.74;100723.50;5090097;27;45654;-76
2023/05/07 03:12:18;;;;;;;;;0.00;0.00;;;;;18.80;65.23;100726.81;5074313;27;45470;-75
2023/05/07 03:14:44;;;;;;;;;0.00;0.00;;;;;18.77;65.24;100727.16;5074125;27;47199;-78
2023/05/07 03:17:09;;;;;;;;;0.75;0.00;;;;;18.76;65.07;100728.97;5074113;27;47098;-78
2023/05/07 03:19:34;;;;;;;;;0.75;0.00;;;;;18.72;65.26;100722.31;5074031;27;45655;-78
2023/05/07 03:25:21;;;;;;;;;0.00;0.00;;;;;18.62;64.46;100716.28;5073981;28;46153;-77
2023/05/07 03:27:47;;;;;;;;;0.00;0.00;;;;;18.48;64.71;100714.19;5074111;28;45650;-77
2023/05/07 03:30:12;;;;;;;;;0.00;0.00;;;;;18.32;64.77;100712.25;5074106;27;45592;-76
2023/05/07 03:32:38;;;;;;;;;0.75;0.00;;;;;18.13;65.13;100717.78;5074166;27;45543;-77
2023/05/07 03:35:03;;;;;;;;;0.00;0.00;;;;;18.02;65.65;100718.88;5074206;27;45498;-75
2023/05/07 03:40:50;;;;;;;;;0.00;0.00;;;;;18.08;66.13;100725.38;5062610;28;45801;-76
2023/05/07 03:43:16;;;;;;;;;0.00;0.00;;;;;18.07;65.98;100723.69;5073875;27;45875;-76
2023/05/07 03:45:41;;;;;;;;;0.00;0.00;;;;;18.08;66.07;100724.53;5073817;27;45587;-78
2023/05/07 03:48:07;;;;;;;;;1.00;0.00;;;;;18.04;66.21;100735.44;5072762;28;46366;-75
2023/05/07 03:50:32;;;;;;;;;0.25;0.00;;;;;18.07;66.71;100750.22;5073912;27;45530;-78
2023/05/07 03:52:58;;;;;;;;;0.00;0.00;;;;;18.09;66.60;100745.56;5089414;27;45569;-77
2023/05/07 03:55:23;;;;;;;;;0.00;0.00;;;;;18.08;66.06;100735.16;5073972;27;45466;-76
2023/05/07 03:57:48;;;;;;;;;0.00;0.00;;;;;18.06;66.28;100729.16;5073789;27;45902;-77
2023/05/07 04:00:14;;;;;;;;;0.00;0.00;;;;;18.02;66.47;100726.81;5073710;27;45520;-76
2023/05/07 04:02:39;;;;;;;;;0.00;0.00;;;;;17.96;66.08;100722.13;5073583;27;45530;-75
2023/05/07 04:05:05;;;;;;;;;0.00;0.00;;;;;18.01;66.06;100734.91;5073688;27;46197;-75
2023/05/07 04:10:56;;;;;;;;;0.00;0.00;;;;;18.07;66.45;100723.69;5074529;28;45676;-77
2023/05/07 04:13:21;;;;;;;;;0.00;0.00;;;;;18.12;66.89;100734.69;5077344;27;45588;-75
2023/05/07 04:15:48;;;;;;;;;0.00;0.00;;;;;18.13;66.16;100741.66;5077283;27;45538;-77
2023/05/07 04:18:14;;;;;;;;;0.00;0.00;;;;;18.12;66.28;100745.28;5076869;27;46215;-77
2023/05/07 04:20:39;;;;;;;;;0.00;0.00;;;;;18.09;66.62;100744.75;5077020;28;45596;-77
2023/05/07 04:23:05;;;;;;;;;0.00;0.00;;;;;18.07;66.33;100747.56;5076942;27;45745;-76
2023/05/07 04:25:30;;;;;;;;;1.00;1.00;;;;;18.02;66.53;100749.84;5076592;27;46785;-75
2023/05/07 04:27:55;;;;;;;;;0.00;0.00;;;;;18.02;66.62;100749.84;5075631;28;48126;-74
2023/05/07 04:30:21;;;;;;;;;0.00;0.00;;;;;18.06;67.22;100739.75;5076729;27;45599;-77
2023/05/07 04:32:47;;;;;;;;;1.00;0.00;;;;;18.08;66.73;100751.88;5092665;27;45540;-76
2023/05/07 04:35:13;;;;;;;;;1.00;0.50;;;;;18.11;66.75;100743.63;5076732;27;47568;-77
2023/05/07 04:41:05;;;;;;;;;0.00;0.00;;;;;18.17;66.91;100753.59;5074746;28;45584;-74
2023/05/07 04:43:30;;;;;;;;;0.75;0.00;;;;;18.16;66.31;100770.50;5077158;27;45688;-75
2023/05/07 04:45:55;;;;;;;;;0.00;0.00;;;;;18.11;66.68;100770.13;5076848;28;45606;-76
2023/05/07 04:48:21;;;;;;;;;0.00;0.00;;;;;18.04;66.41;100767.25;5076737;27;45703;-76
2023/05/07 04:50:50;;;;;;;;;0.00;0.00;;;;;18.01;66.76;100775.53;5076573;27;45717;-77
2023/05/07 04:56:37;;;;;;;;;0.00;0.00;;;;;17.94;66.89;100779.75;5076310;28;45662;-77
2023/05/07 04:59:02;;;;;;;;;0.75;0.00;;;;;17.96;67.24;100776.97;5076465;27;45739;-75
2023/05/07 05:01:27;;;;;;;;;1.00;0.00;;;;;17.98;67.16;100775.81;5076318;27;45626;-75
2023/05/07 05:03:53;;;;;;;;;0.00;0.00;;;;;17.95;66.89;100777.94;5075176;28;45794;-75
2023/05/07 05:06:18;;;;;;;;;0.50;0.00;;;;;17.93;67.13;100777.25;5075867;27;51150;-77
2023/05/07 05:08:43;;;;;;;;;0.00;0.00;;;;;17.91;66.74;100781.91;5076158;27;47297;-77
2023/05/07 05:11:09;;;;;;;;;0.00;0.00;;;;;17.85;67.36;100782.50;5075937;27;45635;-76
2023/05/07 05:13:34;;;;;;;;;0.75;0.00;;;;;17.78;66.81;100782.25;5076209;27;45828;-77
2023/05/07 05:16:00;;;;;;;;;0.00;0.00;;;;;17.69;66.95;100777.03;5075903;27;46536;-77
2023/05/07 05:18:25;;;;;;;;;0.75;0.00;;;;;17.71;67.11;100785.66;5075709;27;47263;-74
2023/05/07 05:20:51;;;;;;;;;0.00;0.00;;;;;17.75;67.13;100784.38;5075951;27;45445;-77
2023/05/07 05:26:38;;;;;;;;;0.00;0.00;;;;;17.78;67.05;100798.16;5075723;28;45773;-77
2023/05/07 05:29:03;;;;;;;;;0.00;0.00;;;;;17.81;67.26;100805.84;5074514;28;46363;-75
2023/05/07 05:31:28;;;;;;;;;0.00;0.00;;;;;17.86;67.67;100802.72;5075801;27;45659;-77
2023/05/07 05:33:54;;;;;;;;;0.00;0.00;;;;;17.88;67.23;100800.72;5076128;27;45597;-76
2023/05/07 05:36:19;;;;;;;;;0.00;0.00;;;;;17.91;66.91;100805.75;5075975;27;46281;-75
2023/05/07 05:38:45;;;;;;;;;0.00;0.00;;;;;17.94;67.14;100802.78;5075685;28;45658;-78
2023/05/07 05:41:10;;;;;;;;;0.00;0.00;;;;;17.95;66.88;100807.94;5075530;27;45691;-75
2023/05/07 05:43:35;;;;;;;;;0.00;0.00;;;;;17.98;67.46;100801.50;5075671;27;45731;-77
2023/05/07 05:46:04;;;;;;;;;1.00;0.00;;;;;18.01;67.61;100806.50;5075765;27;45512;-77
2023/05/07 05:48:29;;;;;;;;;1.00;0.00;;;;;18.02;67.34;100813.47;5075271;27;47367;-77
2023/05/07 05:50:54;;;;;;;;;0.00;0.00;;;;;18.06;67.19;100812.19;5075478;27;45683;-72
2023/05/07 05:56:42;;;;;;;;;0.00;0.00;;;;;18.08;66.87;100809.38;5075169;28;46025;-73
2023/05/07 05:59:07;;;;;;;;;0.00;0.00;;;;;18.09;66.81;100811.88;5075359;28;45651;-74
2023/05/07 06:01:33;;;;;;;;;0.00;0.00;;;;;18.12;67.02;100818.69;5075471;27;45774;-75
2023/05/07 06:03:58;;;;;;;;;0.75;0.00;;;;;18.14;67.35;100819.41;5091099;27;45921;-76
2023/05/07 06:06:23;;;;;;;;;0.50;0.00;;;;;18.15;66.75;100811.25;5075145;27;47310;-75
2023/05/07 06:12:11;;;;;;;;;1.00;0.00;;;;;18.17;66.60;100817.25;5075027;28;45626;-74
2023/05/07 06:14:37;;;;;;;;;0.00;0.00;;;;;18.17;66.78;100822.56;5075522;27;45753;-74
2023/05/07 06:17:02;;;;;;;;;0.00;0.00;;;;;18.20;67.12;100818.75;5075253;27;46484;-73
2023/05/07 06:19:28;;;;;;;;;0.00;0.00;;;;;18.20;66.53;100822.25;5090659;27;47576;-76
2023/05/07 06:21:53;;;;;;;;;0.00;0.00;;;;;18.19;66.41;100820.56;5075382;27;45701;-75
2023/05/07 06:24:19;;;;;;;;;1.00;1.00;;;;;18.19;66.50;100830.38;5075331;27;45685;-78
2023/05/07 06:26:44;;;;;;;;;1.25;1.00;;;;;18.22;66.41;100832.72;5090572;27;47754;-78
2023/05/07 06:29:09;;;;;;;;;1.00;0.00;;;;;18.22;66.76;100830.06;5075039;27;45982;-74
2023/05/07 06:31:35;;;;;;;;;0.50;0.00;;;;;18.24;66.85;100828.09;5074680;27;46214;-77
2023/05/07 06:34:02;;;;;;;;;0.00;0.00;;;;;18.24;66.29;100828.94;5074948;27;45684;-75
2023/05/07 06:36:28;;;;;;;;;0.00;0.00;;;;;18.24;66.13;100826.28;5074649;27;47332;-77
2023/05/07 06:42:15;;;;;;;;;0.00;0.00;;;;;18.28;66.21;100832.09;5063312;28;45613;-76
2023/05/07 06:44:40;;;;;;;;;0.00;0.00;;;;;18.28;66.41;100830.28;5075044;27;45924;-76
2023/05/07 06:47:05;;;;;;;;;0.00;0.00;;;;;18.31;66.01;100831.78;5074914;27;46528;-77
2023/05/07 06:49:31;;;;;;;;;1.00;0.00;;;;;18.32;66.19;100826.34;5074455;27;47124;-77
2023/05/07 06:51:56;;;;;;;;;0.00;0.00;;;;;18.35;66.24;100825.22;5074794;27;45687;-75
2023/05/07 06:57:43;;;;;;;;;0.00;0.00;;;;;18.36;66.10;100840.94;5074438;28;45557;-74
2023/05/07 07:00:09;;;;;;;;;0.00;0.00;;;;;18.35;66.08;100841.94;5074517;27;45614;-75
2023/05/07 07:02:36;;;;;;;;;0.00;0.00;;;;;18.36;66.21;100846.25;5074501;27;45691;-74
2023/05/07 07:05:01;;;;;;;;;0.00;0.00;;;;;18.37;66.28;100844.44;5074678;27;45709;-76
2023/05/07 07:07:27;;;;;;;;;0.00;0.00;;;;;18.39;66.23;100848.63;5072947;28;46439;-75
2023/05/07 07:09:52;;;;;;;;;0.00;0.00;;;;;18.42;66.23;100844.81;5074465;27;45675;-76
2023/05/07 07:12:17;;;;;;;;;0.00;0.00;;;;;18.43;66.05;100852.63;5074433;27;45743;-77
2023/05/07 07:14:43;;;;;;;;;1.00;0.75;;;;;18.45;66.57;100849.81;5074447;27;45567;-77
2023/05/07 07:17:08;;;;;;;;;0.75;0.50;;;;;18.48;66.62;100849.50;5073926;27;47224;-76
2023/05/07 07:19:33;;;;;;;;;0.00;0.00;;;;;18.48;66.33;100854.81;5089713;27;47901;-78
2023/05/07 07:21:58;;;;;;;;;0.00;0.00;;;;;18.50;66.65;100855.50;5074062;27;45707;-76
2023/05/07 07:27:45;;;;;;;;;0.00;0.00;;;;;18.52;66.51;100868.59;5073986;28;46173;-77
2023/05/07 07:30:11;;;;;;;;;0.50;0.50;;;;;18.52;66.49;100865.94;5073671;27;48401;-78
2023/05/07 07:32:37;;;;;;;;;0.00;0.00;;;;;18.49;66.46;100871.56;5089505;27;46266;-78
2023/05/07 07:35:02;;;;;;;;;1.00;1.00;;;;;18.49;66.51;100869.75;5074170;27;45810;-78
2023/05/07 07:37:28;;;;;;;;;2.00;0.00;;;;;18.50;66.08;100871.41;5074011;28;46129;-77
2023/05/07 07:39:54;;;;;;;;;1.00;0.25;;;;;18.54;66.24;100874.59;5074006;27;45719;-76
2023/05/07 07:42:20;;;;;;;;;0.00;0.00;;;;;18.55;66.69;100884.25;5073834;27;45467;-76
2023/05/07 07:44:45;;;;;;;;;1.25;0.00;;;;;18.57;66.31;100879.63;5074209;27;45408;-74
2023/05/07 07:47:10;;;;;;;;;0.00;0.00;;;;;18.55;66.49;100886.91;5076748;27;45651;-74
2023/05/07 07:49:36;;;;;;;;;0.75;0.00;;;;;18.48;65.72;100877.84;5077489;27;45493;-76
2023/05/07 07:52:01;;;;;;;;;0.25;0.25;;;;;18.49;66.56;100885.66;5077486;27;45626;-76
2023/05/07 07:57:51;;;;;;;;;0.00;0.00;;;;;18.60;66.57;100881.97;5077221;28;45745;-76
2023/05/07 08:00:17;;;;;;;;;1.50;0.50;;;;;18.63;66.73;100887.78;5077439;27;45985;-77
2023/05/07 08:02:42;;;;;;;;;0.00;0.00;;;;;18.67;66.08;100877.72;5077121;27;45591;-75
2023/05/07 08:05:08;;;;;;;;;1.25;0.75;;;;;18.71;66.63;100889.69;5077126;27;45926;-75
2023/05/07 08:07:33;;;;;;;;;1.00;1.00;;;;;18.74;66.08;100879.59;5077086;27;46519;-76
2023/05/07 08:13:20;;;;;;;;;1.00;1.00;;;;;18.81;65.87;100893.09;5076898;28;45530;-77
2023/05/07 08:15:45;;;;;;;;;2.00;1.25;;;;;18.84;65.99;100895.41;5077369;27;45683;-77
2023/05/07 08:18:10;;;;;;;;;0.25;0.25;;;;;18.88;66.15;100895.97;5092472;27;48768;-75
2023/05/07 08:20:39;;;;;;;;;0.75;0.75;;;;;18.92;66.33;100897.31;5077230;27;46095;-77
2023/05/07 08:23:05;;;;;;;;;1.00;1.00;;;;;18.98;65.96;100907.31;5076802;27;45559;-78
2023/05/07 08:25:34;;;;;;;;;1.00;1.00;;;;;19.01;65.89;100909.63;5092552;27;45864;-74
2023/05/07 08:27:59;;;;;;;;;0.00;0.00;;;;;19.02;66.09;100912.16;5076680;27;46425;-76
2023/05/07 08:30:25;;;;;;;;;0.25;0.25;;;;;19.00;65.93;100900.84;5092377;27;45956;-77
2023/05/07 08:32:50;;;;;;;;;1.00;1.00;;;;;18.95;65.51;100913.75;5076563;27;45513;-76
2023/05/07 08:35:15;;;;;;;;;0.25;0.25;;;;;18.89;66.13;100914.41;5076939;27;45490;-75
2023/05/07 08:37:41;;;;;;;;;1.00;1.00;;;;;18.88;66.21;100917.19;5076353;27;47273;-76
2023/05/07 08:43:32;;;;;;;;;0.25;0.25;;;;;18.92;65.72;100919.38;5065206;28;45725;-76
2023/05/07 08:46:01;;;;;;;;;0.25;0.25;;;;;18.97;66.27;100910.94;5076759;27;45435;-74
2023/05/07 08:48:29;;;;;;;;;1.00;1.00;;;;;19.02;66.31;100912.16;5076597;27;46329;-78
2023/05/07 08:50:55;;;;;;;;;2.00;1.00;;;;;19.08;66.00;100918.66;5076378;27;46936;-77
2023/05/07 08:53:21;;;;;;;;;1.00;1.00;;;;;19.15;65.92;100915.22;5076491;28;45498;-75
2023/05/07 08:55:47;;;;;;;;;2.00;2.00;;;;;19.19;66.12;100919.22;5076585;27;45871;-77
2023/05/07 08:58:13;;;;;;;;;1.00;1.00;;;;;19.22;66.34;100926.88;5076307;28;45529;-76
2023/05/07 09:00:40;;;;;;;;;1.00;1.00;;;;;19.22;65.45;100920.72;5076686;27;45587;-77
2023/05/07 09:03:05;;;;;;;;;1.00;1.00;;;;;19.17;65.38;100921.19;5076119;28;45640;-75
2023/05/07 09:05:31;;;;;;;;;0.75;0.75;;;;;19.16;65.29;100924.84;5076436;27;45678;-75
2023/05/07 09:07:59;;;;;;;;;1.00;1.00;;;;;19.16;65.62;100922.19;5091853;27;48563;-77
2023/05/07 09:13:46;;;;;;;;;1.00;1.00;;;;;19.23;65.38;100920.56;5076209;28;45719;-79
2023/05/07 09:16:12;;;;;;;;;1.00;1.00;;;;;19.31;65.27;100919.81;5076508;27;45815;-77
2023/05/07 09:18:42;;;;;;;;;2.00;2.00;;;;;19.39;65.54;100924.31;5076103;27;48211;-79
2023/05/07 09:21:10;;;;;;;;;1.50;1.50;;;;;19.46;65.20;100922.72;5074698;28;46503;-79
2023/05/07 09:23:35;;;;;;;;;1.75;1.00;;;;;19.53;65.46;100919.28;5075985;27;45615;-75
2023/05/07 09:26:02;;;;;;;;;2.00;2.00;;;;;19.58;65.12;100926.78;5076481;27;45673;-76
2023/05/07 09:28:27;;;;;;;;;0.75;0.75;;;;;19.64;65.25;100921.66;5075923;27;46613;-79
2023/05/07 09:30:52;;;;;;;;;3.00;2.00;;;;;19.74;65.12;100918.03;5075895;27;46049;-76
2023/05/07 09:33:18;;;;;;;;;2.00;2.00;;;;;19.76;64.76;100916.06;5076077;27;45509;-76
2023/05/07 09:35:43;;;;;;;;;2.00;1.00;;;;;19.78;64.14;100919.38;5075663;27;45520;-75
2023/05/07 09:38:08;;;;;;;;;2.75;2.00;;;;;19.80;64.40;100920.06;5075513;27;47190;-76
2023/05/07 09:43:56;;;;;;;;;3.00;2.25;;;;;19.84;64.59;100922.22;5071011;28;45740;-78
2023/05/07 09:46:27;;;;;;;;;1.75;1.00;;;;;19.89;64.62;100922.56;5076040;27;45620;-78
2023/05/07 09:48:55;;;;;;;;;1.50;1.50;;;;;19.92;64.07;100919.59;5075511;27;46271;-78
2023/05/07 09:51:37;;;;;;;;;2.00;2.00;;;;;19.97;64.27;100924.44;5075665;27;45933;-77
2023/05/07 09:54:04;;;;;;;;;2.00;2.00;;;;;19.98;64.10;100926.91;5075687;27;45492;-76
2023/05/07 09:56:31;;;;;;;;;2.00;2.00;;;;;20.01;63.90;100931.09;5075687;27;45785;-75
2023/05/07 09:59:00;;;;;;;;;1.00;1.00;;;;;20.02;63.98;100928.28;5073957;28;47538;-78
2023/05/07 10:01:26;;;;;;;;;2.00;2.00;;;;;20.09;64.18;100928.44;5075335;27;46992;-76
2023/05/07 10:03:52;;;;;;;;;1.00;1.00;;;;;20.15;63.71;100925.13;5075164;27;45565;-75
2023/05/07 10:06:20;;;;;;;;;2.25;2.25;;;;;20.23;63.74;100929.66;5075218;27;45986;-78
2023/05/07 10:08:45;;;;;;;;;2.00;2.00;;;;;20.31;63.52;100924.31;5074544;27;47965;-78
2023/05/07 10:14:33;;;;;;;;;2.00;2.00;;;;;20.49;63.12;100928.56;5075479;28;45654;-76
2023/05/07 10:16:59;;;;;;;;;1.75;1.75;;;;;20.60;63.04;100927.41;5075159;27;45907;-78
2023/05/07 10:19:26;;;;;;;;;2.00;2.00;;;;;20.70;62.94;100927.22;5074875;27;46788;-77
2023/05/07 10:21:59;;;;;;;;;2.25;2.00;;;;;20.79;62.67;100935.03;5075448;28;46056;-77
2023/05/07 10:24:36;;;;;;;;;2.00;2.00;;;;;20.87;62.41;100936.88;5074855;27;45674;-77
2023/05/07 10:27:06;;;;;;;;;1.50;1.50;;;;;20.92;61.95;100932.72;5075351;27;45624;-76
2023/05/07 10:30:09;;;;;;;;;3.00;2.50;;;;;20.89;62.04;100930.38;5074895;28;45537;-77
2023/05/07 10:32:40;;;;;;;;;2.00;2.00;;;;;20.86;61.95;100922.72;5074801;28;46842;-76
2023/05/07 10:35:12;;;;;;;;;2.00;2.00;;;;;20.83;62.03;100930.22;5074914;27;45654;-78
2023/05/07 10:37:37;;;;;;;;;2.00;2.00;;;;;20.81;61.87;100933.06;5073927;28;45667;-77
2023/05/07 10:40:03;;;;;;;;;3.00;2.00;;;;;20.77;61.95;100930.91;5074478;27;45600;-77
2023/05/07 10:42:29;;;;;;;;;4.75;4.00;;;;;20.76;61.75;100927.41;5074744;27;46377;-78
2023/05/07 10:44:54;;;;;;;;;2.25;2.25;;;;;20.75;61.38;100938.19;5074369;27;45841;-76
2023/05/07 10:47:20;;;;;;;;;3.25;2.25;;;;;20.69;60.94;100939.69;5074862;27;45593;-75
2023/05/07 10:49:45;;;;;;;;;3.25;3.00;;;;;20.59;60.96;100933.72;5074612;27;46363;-76
2023/05/07 10:52:13;;;;;;;;;3.00;3.00;;;;;20.49;61.49;100941.88;5090078;27;46192;-74
2023/05/07 10:54:40;;;;;;;;;3.00;3.00;;;;;20.44;61.77;100938.88;5074212;27;45645;-74
2023/05/07 10:57:36;;;;;;;;;4.00;4.00;;;;;20.44;62.01;100946.84;5074403;27;45489;-73
2023/05/07 11:00:25;;;;;;;;;3.00;3.00;;;;;20.43;62.20;100947.84;5074018;28;47790;-73
2023/05/07 11:03:02;;;;;;;;;4.25;3.00;;;;;20.41;62.07;100947.16;5074141;27;46957;-77
2023/05/07 11:05:32;;;;;;;;;2.00;2.00;;;;;20.30;61.50;100952.75;5074473;27;45589;-73
2023/05/07 11:07:59;;;;;;;;;4.00;3.00;;;;;20.01;62.02;100955.03;5074291;27;45586;-73
2023/05/07 11:10:56;;;;;;;;;4.00;3.50;;;;;19.87;62.80;100955.63;5074111;27;47033;-77
2023/05/07 11:13:41;;;;;;;;;2.00;2.00;;;;;19.76;62.99;100959.41;5073855;28;46217;-76
2023/05/07 11:16:29;;;;;;;;;4.00;4.00;;;;;19.60;63.43;100956.69;5089526;27;45656;-77
2023/05/07 11:18:56;;;;;;;;;5.00;4.25;;;;;19.44;64.37;100957.41;5074145;27;46059;-73
2023/05/07 11:21:50;;;;;;;;;3.50;3.50;;;;;19.42;64.80;100954.09;5073100;28;45548;-72
2023/05/07 11:24:16;;;;;;;;;3.00;3.00;;;;;19.45;64.76;100953.78;5011681;28;46915;-73
2023/05/07 11:26:49;;;;;;;;;4.50;4.50;;;;;19.56;65.38;100958.00;5011342;28;45685;-73
2023/05/07 11:29:15;;;;;;;;;5.00;5.00;;;;;19.66;65.49;100958.69;5011869;28;45829;-74
2023/05/07 11:31:41;;;;;;;;;5.25;5.00;;;;;19.74;65.42;100957.91;5011574;28;45925;-71
2023/05/07 11:34:08;;;;;;;;;6.00;5.00;;;;;19.87;65.69;100956.47;5011221;28;47206;-73
2023/05/07 11:36:33;;;;;;;;;6.00;5.00;;;;;20.02;65.37;100959.38;5011443;28;45845;-74
2023/05/07 11:38:59;;;;;;;;;6.50;6.25;;;;;20.13;65.32;100958.22;5011499;28;45624;-73
2023/05/07 11:41:36;;;;;;;;;7.00;6.25;;;;;20.21;65.41;100964.41;5011458;28;46298;-74
2023/05/07 11:44:01;;;;;;;;;6.75;6.00;;;;;20.28;65.17;100968.09;5011298;28;46305;-73
2023/05/07 11:46:27;;;;;;;;;7.50;7.50;;;;;20.34;65.00;100971.94;5011176;28;45623;-72
2023/05/07 11:48:53;;;;;;;;;6.75;6.00;;;;;20.37;64.77;100960.97;5011564;28;45645;-73
2023/05/07 11:51:20;;;;;;;;;7.25;6.00;;;;;20.42;65.18;100963.97;5011218;28;46453;-72
2023/05/07 11:53:46;;;;;;;;;6.00;5.25;;;;;20.47;64.88;100951.84;5011202;28;46149;-73
2023/05/07 11:56:13;;;;;;;;;6.25;6.25;;;;;20.54;64.76;100957.34;5011364;28;46059;-75
2023/05/07 11:58:40;;;;;;;;;10.00;8.00;;;;;20.59;64.66;100956.84;5011304;28;45722;-79
2023/05/07 12:01:08;;;;;;;;;7.75;7.00;;;;;20.65;65.44;100959.69;5053829;28;45623;-74
2023/05/07 12:03:34;;;;;;;;;7.25;7.00;;;;;20.74;65.17;100955.19;5073320;27;47177;-72
2023/05/07 12:06:00;;;;;;;;;6.25;6.25;;;;;20.86;65.50;100956.50;5073267;27;45586;-73
2023/05/07 12:08:25;;;;;;;;;7.50;6.75;;;;;21.02;65.14;100964.50;5073659;27;45730;-73
2023/05/07 12:10:51;;;;;;;;;8.75;6.00;;;;;21.15;64.50;100954.19;5073437;27;45576;-72
2023/05/07 12:13:20;;;;;;;;;7.50;6.75;;;;;21.33;64.41;100967.31;5073155;27;47015;-72
2023/05/07 12:15:46;;;;;;;;;5.00;5.00;;;;;21.42;63.42;100955.66;5073593;27;46048;-72
2023/05/07 12:18:12;;;;;;;;;2.50;2.50;;;;;21.45;61.99;100957.97;5073565;27;45961;-73
2023/05/07 12:20:38;;;;;;;;;5.00;4.25;;;;;21.44;62.17;100958.94;5073258;27;46526;-75
2023/05/07 12:23:04;;;;;;;;;10.50;9.00;;;;;21.41;61.42;100959.31;5073312;27;47475;-75
2023/05/07 12:25:36;;;;;;;;;8.50;7.50;;;;;21.33;61.85;100951.31;5073512;27;45661;-72
2023/05/07 12:28:04;;;;;;;;;5.25;5.00;;;;;21.28;61.86;100961.66;5073500;27;45607;-73
2023/05/07 12:30:30;;;;;;;;;5.00;5.00;;;;;21.23;61.46;100964.84;5073211;27;45602;-74
2023/05/07 12:32:56;;;;;;;;;4.50;4.50;;;;;21.13;62.23;100972.16;5091137;27;47310;-72
2023/05/07 12:35:32;;;;;;;;;4.25;3.50;;;;;21.02;61.76;100979.66;5076889;27;45574;-77
2023/05/07 12:37:59;;;;;;;;;4.75;4.00;;;;;20.90;61.81;100982.66;5076956;27;45822;-75
2023/05/07 12:40:36;;;;;;;;;5.75;5.25;;;;;20.83;62.00;100989.66;5076786;28;46471;-75
2023/05/07 12:43:01;;;;;;;;;5.00;5.00;;;;;20.75;62.11;100984.31;5092327;27;47040;-75
2023/05/07 12:45:27;;;;;;;;;5.00;4.75;;;;;20.72;62.21;100992.66;5076474;27;45682;-79